Time;durP1;ratioP1;P1;durP2;ratioP2;P2;SDS_P1;SDS_P2;PMS_P1;PMS_P2;Temp;Humidity;BMP_temperature;BMP_pressure;BME280_temperature;BME280_humidity;BME280_pressure;Samples;Min_cycle;Max_cycle;Signal;HPM_P1;HPM_P2
2022/11/23 00:00:42;;;;;;;11.02;2.03;;;4.40;77.50;;;;;;5030864;28;20458;-74
2022/11/23 00:03:14;;;;;;;8.50;1.67;;;4.30;77.30;;;;;;5031527;28;20029;-74
2022/11/23 00:05:40;;;;;;;5.47;1.60;;;4.30;77.40;;;;;;5031383;28;20026;-75
2022/11/23 00:08:06;;;;;;;4.82;1.83;;;4.30;77.60;;;;;;5031708;28;20584;-75
2022/11/23 00:10:31;;;;;;;7.40;1.55;;;4.20;77.50;;;;;;5031607;28;20026;-74
2022/11/23 00:12:57;;;;;;;4.85;1.40;;;4.20;77.60;;;;;;5031573;28;20442;-75
2022/11/23 00:15:22;;;;;;;6.07;1.65;;;4.20;77.80;;;;;;5031562;28;20022;-74
2022/11/23 00:17:48;;;;;;;7.35;1.80;;;4.10;77.60;;;;;;5048221;28;20121;-74
2022/11/23 00:20:14;;;;;;;3.55;1.20;;;4.10;78.10;;;;;;5031256;28;20017;-75
2022/11/23 00:22:39;;;;;;;4.97;1.55;;;4.10;78.40;;;;;;5031564;28;20037;-74
2022/11/23 00:25:05;;;;;;;5.55;1.60;;;4.10;78.70;;;;;;5031122;28;20044;-74
2022/11/23 00:27:31;;;;;;;5.63;1.50;;;4.20;78.60;;;;;;5031153;28;20022;-74
2022/11/23 00:29:56;;;;;;;6.53;1.52;;;4.20;78.50;;;;;;5031551;28;20075;-74
2022/11/23 00:32:22;;;;;;;7.30;1.70;;;4.20;78.50;;;;;;5031506;28;20025;-75
2022/11/23 00:34:47;;;;;;;5.70;1.55;;;4.20;78.60;;;;;;5031089;28;20061;-74
2022/11/23 00:37:13;;;;;;;6.68;1.60;;;4.20;78.60;;;;;;5031265;28;20030;-74
2022/11/23 00:39:39;;;;;;;9.55;2.33;;;4.20;78.60;;;;;;5033517;28;20025;-74
2022/11/23 00:42:04;;;;;;;5.15;1.92;;;4.00;79.80;;;;;;5034958;28;20488;-74
2022/11/23 00:44:30;;;;;;;5.65;1.30;;;4.00;79.40;;;;;;5034894;28;20482;-74
2022/11/23 00:46:55;;;;;;;5.82;1.52;;;4.00;79.80;;;;;;5034736;28;20474;-74
2022/11/23 00:49:21;;;;;;;5.28;1.20;;;4.00;79.80;;;;;;5034975;28;20390;-74
2022/11/23 00:51:46;;;;;;;3.15;1.20;;;4.00;79.60;;;;;;5034810;28;20069;-73
2022/11/23 00:54:12;;;;;;;3.03;1.10;;;4.00;79.50;;;;;;5051335;28;20402;-74
2022/11/23 00:56:38;;;;;;;9.07;1.88;;;4.00;79.60;;;;;;5034060;28;20040;-74
2022/11/23 00:59:04;;;;;;;6.00;1.23;;;3.90;79.80;;;;;;5034726;28;20028;-74
2022/11/23 01:01:38;;;;;;;11.95;1.45;;;4.00;80.40;;;;;;5034262;28;20046;-73
2022/11/23 01:04:06;;;;;;;4.55;1.20;;;3.90;80.70;;;;;;5034103;28;20031;-73
2022/11/23 01:06:34;;;;;;;8.25;1.27;;;4.00;80.50;;;;;;5050935;28;20514;-74
2022/11/23 01:09:04;;;;;;;4.90;1.35;;;3.90;80.40;;;;;;5034478;28;20052;-74
2022/11/23 01:11:31;;;;;;;1.95;1.00;;;3.90;80.50;;;;;;5034333;28;20112;-74
2022/11/23 01:13:57;;;;;;;5.50;1.40;;;3.90;80.60;;;;;;5034561;28;20061;-75
2022/11/23 01:16:32;;;;;;;3.63;1.30;;;3.90;80.50;;;;;;5034205;28;20091;-73
2022/11/23 01:19:04;;;;;;;3.72;1.27;;;3.90;80.50;;;;;;5034436;28;20026;-74
2022/11/23 01:21:32;;;;;;;6.28;1.60;;;3.80;80.20;;;;;;5034073;28;20038;-73
2022/11/23 01:23:58;;;;;;;4.18;1.40;;;3.80;80.20;;;;;;5034190;28;20029;-73
2022/11/23 01:26:24;;;;;;;5.50;1.60;;;3.70;80.40;;;;;;5035210;28;20026;-73
2022/11/23 01:28:50;;;;;;;4.85;1.92;;;3.70;80.60;;;;;;5034052;28;20067;-74
2022/11/23 01:31:19;;;;;;;7.53;1.77;;;3.60;80.70;;;;;;5050435;28;20021;-74
2022/11/23 01:33:45;;;;;;;10.63;1.95;;;3.50;81.00;;;;;;5034079;28;20163;-74
2022/11/23 01:36:20;;;;;;;7.18;1.58;;;3.50;81.30;;;;;;5033843;28;20356;-74
2022/11/23 01:38:47;;;;;;;6.82;1.77;;;3.60;81.20;;;;;;5033906;28;20029;-74
2022/11/23 01:41:15;;;;;;;10.88;2.00;;;3.60;81.20;;;;;;5033452;28;20030;-73
2022/11/23 01:43:41;;;;;;;5.28;2.08;;;3.60;80.90;;;;;;5033648;28;20168;-74
2022/11/23 01:46:07;;;;;;;4.10;2.00;;;3.50;81.00;;;;;;5033972;28;20112;-73
2022/11/23 01:48:41;;;;;;;4.43;1.83;;;3.50;80.90;;;;;;5033825;28;20029;-73
2022/11/23 01:51:33;;;;;;;4.85;2.20;;;3.40;80.90;;;;;;5033811;28;20393;-73
2022/11/23 01:54:10;;;;;;;6.63;1.60;;;3.50;80.90;;;;;;5033703;28;20022;-74
2022/11/23 01:56:41;;;;;;;9.57;2.40;;;3.40;80.80;;;;;;5033673;28;20107;-74
2022/11/23 01:59:11;;;;;;;5.53;1.67;;;3.40;81.00;;;;;;5033675;28;20021;-74
2022/11/23 02:01:37;;;;;;;6.13;1.67;;;3.40;81.10;;;;;;5033528;28;20516;-74
2022/11/23 02:04:04;;;;;;;5.13;1.42;;;3.40;82.50;;;;;;5033344;28;20033;-73
2022/11/23 02:06:31;;;;;;;8.60;2.05;;;3.50;81.80;;;;;;5033180;28;20036;-73
2022/11/23 02:08:57;;;;;;;6.40;1.75;;;3.50;81.90;;;;;;5033496;28;20033;-73
2022/11/23 02:11:23;;;;;;;6.10;1.85;;;3.50;81.70;;;;;;5033462;28;20026;-73
2022/11/23 02:13:50;;;;;;;4.95;1.48;;;3.60;81.70;;;;;;5033272;28;20026;-74
2022/11/23 02:16:17;;;;;;;6.45;1.60;;;3.60;81.70;;;;;;5033072;28;20064;-73
2022/11/23 02:18:46;;;;;;;5.35;1.13;;;3.70;81.90;;;;;;5033200;28;20497;-75
2022/11/23 02:21:12;;;;;;;7.80;1.70;;;3.80;81.90;;;;;;5032986;28;20029;-74
2022/11/23 02:23:40;;;;;;;8.77;1.85;;;4.10;80.80;;;;;;5033001;28;20022;-74
2022/11/23 02:26:14;;;;;;;5.55;2.15;;;4.10;79.90;;;;;;5032576;28;20120;-73
2022/11/23 02:28:44;;;;;;;6.70;2.17;;;3.90;79.30;;;;;;5033039;28;20079;-73
2022/11/23 02:31:10;;;;;;;9.45;2.00;;;3.90;79.40;;;;;;5032881;28;20021;-74
2022/11/23 02:33:40;;;;;;;8.57;1.90;;;3.80;79.40;;;;;;5033011;28;20125;-73
2022/11/23 02:36:27;;;;;;;8.00;1.95;;;3.70;79.80;;;;;;5032900;28;20034;-74
2022/11/23 02:38:54;;;;;;;6.60;1.80;;;3.60;80.50;;;;;;5032622;28;20037;-74
2022/11/23 02:41:19;;;;;;;6.45;1.98;;;3.60;79.90;;;;;;5032785;28;20080;-73
2022/11/23 02:43:49;;;;;;;7.13;1.77;;;3.40;80.20;;;;;;5032909;28;20348;-73
2022/11/23 02:46:14;;;;;;;5.88;1.75;;;3.40;80.50;;;;;;5032651;28;20116;-73
2022/11/23 02:48:40;;;;;;;8.20;2.15;;;3.30;80.80;;;;;;5032678;28;20449;-74
2022/11/23 02:51:05;;;;;;;3.33;1.65;;;3.20;80.90;;;;;;5032648;28;20030;-73
2022/11/23 02:53:31;;;;;;;6.43;1.65;;;3.10;81.30;;;;;;5032456;28;20355;-73
2022/11/23 02:55:57;;;;;;;3.83;1.13;;;3.20;81.50;;;;;;5032344;28;20025;-73
2022/11/23 02:58:22;;;;;;;6.28;1.75;;;3.20;81.90;;;;;;5032322;28;20040;-73
2022/11/23 03:00:48;;;;;;;5.63;1.65;;;3.20;81.90;;;;;;5032034;28;20065;-73
2022/11/23 03:03:13;;;;;;;4.40;1.60;;;3.10;81.80;;;;;;5032050;28;20032;-73
2022/11/23 03:05:39;;;;;;;5.18;1.85;;;3.10;81.80;;;;;;5032110;28;20466;-73
2022/11/23 03:08:05;;;;;;;4.38;1.35;;;3.10;81.80;;;;;;5032082;28;20025;-73
2022/11/23 03:10:30;;;;;;;8.45;1.98;;;3.10;82.20;;;;;;5032071;28;20398;-73
2022/11/23 03:12:56;;;;;;;7.18;2.10;;;3.10;82.10;;;;;;5031856;28;20025;-73
2022/11/23 03:15:23;;;;;;;6.85;1.98;;;3.00;81.80;;;;;;5032237;28;20033;-74
2022/11/23 03:17:49;;;;;;;6.82;1.73;;;3.00;82.00;;;;;;5031834;28;20034;-73
2022/11/23 03:20:15;;;;;;;5.45;1.90;;;3.10;82.10;;;;;;5031890;28;20131;-73
2022/11/23 03:22:41;;;;;;;6.32;1.77;;;3.10;82.10;;;;;;5031631;28;20026;-73
2022/11/23 03:25:06;;;;;;;5.70;1.30;;;3.20;82.10;;;;;;5031975;28;20120;-73
2022/11/23 03:27:33;;;;;;;6.68;1.67;;;3.20;81.90;;;;;;5032118;28;20025;-74
2022/11/23 03:29:59;;;;;;;5.60;1.70;;;3.30;81.60;;;;;;5031765;28;20029;-73
2022/11/23 03:32:25;;;;;;;9.77;1.77;;;3.30;81.60;;;;;;5032054;28;20374;-74
2022/11/23 03:34:50;;;;;;;4.43;1.58;;;3.30;81.60;;;;;;5031832;28;20116;-73
2022/11/23 03:37:16;;;;;;;5.18;1.38;;;3.40;81.50;;;;;;5031933;28;20029;-78
2022/11/23 03:39:41;;;;;;;7.82;1.55;;;3.40;81.30;;;;;;5031730;28;20432;-73
2022/11/23 03:42:07;;;;;;;7.30;2.03;;;3.40;80.80;;;;;;5031586;28;20501;-73
2022/11/23 03:44:32;;;;;;;5.30;1.50;;;3.40;80.80;;;;;;5031429;28;20387;-73
2022/11/23 03:46:58;;;;;;;6.53;1.90;;;3.30;81.30;;;;;;5032012;28;20025;-73
2022/11/23 03:49:24;;;;;;;11.90;2.10;;;3.30;81.40;;;;;;5031404;28;20021;-74
2022/11/23 03:51:49;;;;;;;10.00;1.67;;;3.40;81.30;;;;;;5031523;28;20049;-73
2022/11/23 03:54:15;;;;;;;4.70;1.73;;;3.40;81.20;;;;;;5031475;28;20067;-74
2022/11/23 03:56:41;;;;;;;7.95;1.98;;;3.40;81.20;;;;;;5031677;28;20030;-74
2022/11/23 03:59:06;;;;;;;7.63;2.03;;;3.50;81.10;;;;;;5031691;28;20028;-74
2022/11/23 04:01:32;;;;;;;7.78;2.45;;;3.50;80.90;;;;;;5031502;28;20088;-75
2022/11/23 04:03:57;;;;;;;4.85;1.77;;;3.50;80.80;;;;;;5031563;28;20018;-74
2022/11/23 04:06:23;;;;;;;10.68;2.33;;;3.50;80.60;;;;;;5031302;28;20037;-74
2022/11/23 04:08:49;;;;;;;7.07;2.25;;;3.50;80.60;;;;;;5031572;28;20029;-74
2022/11/23 04:11:14;;;;;;;9.40;2.47;;;3.50;81.50;;;;;;5031480;28;20075;-73
2022/11/23 04:13:40;;;;;;;6.25;2.15;;;3.40;80.80;;;;;;5032188;28;20117;-73
2022/11/23 04:16:06;;;;;;;7.85;1.88;;;3.40;80.90;;;;;;5035505;28;20485;-73
2022/11/23 04:18:32;;;;;;;6.43;2.05;;;3.40;80.90;;;;;;5035350;28;20026;-73
2022/11/23 04:20:57;;;;;;;10.30;2.25;;;3.40;80.90;;;;;;5035128;28;20021;-73
2022/11/23 04:23:23;;;;;;;8.82;3.00;;;3.50;80.90;;;;;;5035192;28;20028;-73
2022/11/23 04:25:49;;;;;;;12.10;4.65;;;3.50;81.00;;;;;;5035097;28;20026;-73
2022/11/23 04:28:15;;;;;;;11.48;4.85;;;3.50;81.00;;;;;;5035299;28;20040;-74
2022/11/23 04:30:40;;;;;;;12.45;4.35;;;3.60;81.00;;;;;;5035246;28;20032;-74
2022/11/23 04:33:06;;;;;;;12.95;5.30;;;3.60;80.90;;;;;;5035110;28;20103;-74
2022/11/23 04:35:33;;;;;;;10.50;4.55;;;3.60;80.50;;;;;;5035195;28;20022;-74
2022/11/23 04:37:58;;;;;;;8.80;3.15;;;3.70;80.70;;;;;;5034764;28;20033;-74
2022/11/23 04:40:24;;;;;;;6.45;2.60;;;3.70;80.60;;;;;;5034835;28;20546;-74
2022/11/23 04:42:50;;;;;;;10.98;2.67;;;3.70;80.50;;;;;;5034665;28;20025;-74
2022/11/23 04:45:15;;;;;;;8.80;3.42;;;3.70;80.40;;;;;;5034775;28;20425;-74
2022/11/23 04:47:41;;;;;;;8.80;3.15;;;3.70;80.40;;;;;;5034716;28;20026;-74
2022/11/23 04:50:07;;;;;;;12.55;3.00;;;3.70;80.20;;;;;;5034696;28;20029;-74
2022/11/23 04:52:32;;;;;;;9.50;3.53;;;3.70;80.10;;;;;;5034784;28;20029;-74
2022/11/23 04:54:58;;;;;;;6.47;2.80;;;3.70;80.10;;;;;;5034915;28;20374;-74
2022/11/23 04:57:24;;;;;;;9.07;2.35;;;3.70;80.20;;;;;;5034253;28;20095;-73
2022/11/23 04:59:49;;;;;;;9.05;2.35;;;3.60;80.20;;;;;;5034634;28;20017;-75
2022/11/23 05:02:15;;;;;;;6.53;2.20;;;3.60;80.30;;;;;;5034406;28;20041;-75
2022/11/23 05:04:40;;;;;;;7.35;2.20;;;3.70;80.40;;;;;;5034442;28;20487;-74
2022/11/23 05:07:06;;;;;;;8.32;2.28;;;3.70;80.10;;;;;;5034395;28;20493;-75
2022/11/23 05:09:31;;;;;;;7.18;2.35;;;3.80;80.00;;;;;;5034206;28;20030;-74
2022/11/23 05:11:57;;;;;;;7.40;2.33;;;3.80;80.70;;;;;;5034023;28;20026;-73
2022/11/23 05:14:23;;;;;;;4.57;2.20;;;3.80;80.00;;;;;;5034303;28;20350;-73
2022/11/23 05:16:49;;;;;;;7.50;3.03;;;3.80;79.90;;;;;;5034209;28;20034;-73
2022/11/23 05:19:14;;;;;;;7.40;2.75;;;3.80;80.00;;;;;;5034180;28;20079;-72
2022/11/23 05:21:40;;;;;;;14.95;3.80;;;3.80;79.90;;;;;;5034057;28;20038;-71
2022/11/23 05:24:05;;;;;;;6.40;2.92;;;3.70;79.90;;;;;;5033448;28;20017;-72
2022/11/23 05:26:31;;;;;;;11.45;2.85;;;3.70;79.90;;;;;;5033631;28;20032;-75
2022/11/23 05:28:57;;;;;;;10.10;2.78;;;3.70;81.00;;;;;;5033898;28;20417;-79
2022/11/23 05:31:22;;;;;;;7.15;2.53;;;4.20;90.90;;;;;;5033812;28;20033;-77
2022/11/23 05:33:48;;;;;;;9.27;2.65;;;4.30;86.30;;;;;;5033710;28;20378;-76
2022/11/23 05:36:13;;;;;;;7.88;2.33;;;4.50;80.70;;;;;;5033633;28;20030;-77
2022/11/23 05:38:39;;;;;;;11.90;3.58;;;4.60;79.60;;;;;;5034011;28;20378;-77
2022/11/23 05:41:08;;;;;;;16.08;3.35;;;4.60;77.50;;;;;;5034696;28;20030;-75
2022/11/23 05:43:34;;;;;;;8.38;2.25;;;4.70;76.60;;;;;;5032781;28;20172;-77
2022/11/23 05:46:01;;;;;;;9.38;2.38;;;4.80;77.40;;;;;;5033406;28;20096;-72
2022/11/23 05:48:26;;;;;;;10.02;2.70;;;4.70;74.40;;;;;;5033523;28;20029;-73
2022/11/23 05:50:52;;;;;;;9.90;2.65;;;4.40;74.60;;;;;;5033205;28;20035;-72
2022/11/23 05:53:18;;;;;;;10.80;2.53;;;4.00;76.00;;;;;;5033288;28;20084;-73
2022/11/23 05:55:44;;;;;;;8.77;2.85;;;3.70;77.50;;;;;;5033309;28;20025;-73
2022/11/23 05:58:10;;;;;;;9.95;2.95;;;3.40;78.50;;;;;;5033209;28;20033;-74
2022/11/23 06:00:36;;;;;;;13.65;3.10;;;3.20;79.20;;;;;;5033236;28;20139;-73
2022/11/23 06:03:01;;;;;;;9.15;3.45;;;3.10;80.40;;;;;;5033440;28;20079;-72
2022/11/23 06:05:28;;;;;;;13.45;3.95;;;2.90;80.90;;;;;;5033027;28;20474;-72
2022/11/23 06:07:54;;;;;;;10.20;3.72;;;2.90;81.20;;;;;;5032806;28;20086;-73
2022/11/23 06:10:20;;;;;;;13.90;4.53;;;2.80;81.50;;;;;;5033026;28;20683;-73
2022/11/23 06:12:45;;;;;;;13.65;4.35;;;2.80;82.20;;;;;;5033003;28;20029;-73
2022/11/23 06:15:11;;;;;;;13.95;4.00;;;2.70;82.70;;;;;;5033078;28;20374;-74
2022/11/23 06:17:37;;;;;;;14.88;4.38;;;2.60;82.90;;;;;;5032879;28;20347;-74
2022/11/23 06:20:07;;;;;;;16.65;4.13;;;2.60;83.10;;;;;;5032852;28;20060;-72
2022/11/23 06:22:32;;;;;;;12.93;3.13;;;2.60;83.30;;;;;;5032774;28;20029;-73
2022/11/23 06:24:58;;;;;;;9.27;4.22;;;2.60;83.00;;;;;;5032591;28;20604;-72
2022/11/23 06:27:24;;;;;;;13.02;4.07;;;2.60;83.00;;;;;;5032783;28;20068;-72
2022/11/23 06:29:49;;;;;;;9.48;3.90;;;2.60;82.80;;;;;;5031675;28;20501;-72
2022/11/23 06:32:15;;;;;;;11.02;3.80;;;2.60;82.80;;;;;;5032545;28;20427;-72
2022/11/23 06:34:40;;;;;;;12.43;4.22;;;2.60;82.50;;;;;;5032542;28;20042;-72
2022/11/23 06:37:06;;;;;;;15.32;3.72;;;2.60;82.60;;;;;;5031582;28;20030;-72
2022/11/23 06:39:32;;;;;;;8.38;3.55;;;2.50;83.00;;;;;;5032154;28;20431;-72
2022/11/23 06:41:57;;;;;;;15.98;4.50;;;2.50;83.20;;;;;;5032263;28;20107;-72
2022/11/23 06:44:23;;;;;;;13.05;3.95;;;2.50;83.40;;;;;;5032505;28;20020;-73
2022/11/23 06:46:49;;;;;;;13.93;4.13;;;2.50;83.60;;;;;;5032420;28;20080;-73
2022/11/23 06:49:16;;;;;;;12.45;3.50;;;2.50;83.70;;;;;;5032451;28;20021;-73
2022/11/23 06:51:41;;;;;;;9.73;3.80;;;2.40;83.60;;;;;;5032129;28;20120;-73
2022/11/23 06:54:07;;;;;;;16.92;5.20;;;2.50;83.70;;;;;;5032170;28;20116;-73
2022/11/23 06:56:33;;;;;;;13.68;3.72;;;2.50;83.60;;;;;;5032309;28;20488;-74
2022/11/23 06:58:59;;;;;;;12.70;4.68;;;2.40;83.60;;;;;;5032492;28;20039;-74
2022/11/23 07:01:24;;;;;;;12.48;5.10;;;2.40;83.50;;;;;;5031959;28;20045;-75
2022/11/23 07:03:50;;;;;;;10.50;4.93;;;2.40;83.50;;;;;;5031956;28;20025;-74
2022/11/23 07:06:15;;;;;;;11.75;4.65;;;2.30;83.80;;;;;;5032082;28;20025;-73
2022/11/23 07:08:42;;;;;;;12.50;5.25;;;2.30;84.10;;;;;;5031617;28;20379;-74
2022/11/23 07:11:10;;;;;;;13.73;4.60;;;2.30;84.20;;;;;;5031893;28;20030;-73
2022/11/23 07:13:36;;;;;;;14.60;5.13;;;2.40;84.20;;;;;;5031766;28;20028;-74
2022/11/23 07:16:01;;;;;;;19.33;7.53;;;2.50;84.10;;;;;;5031245;28;20029;-73
2022/11/23 07:18:27;;;;;;;16.10;7.63;;;2.50;83.60;;;;;;5031658;28;20079;-74
2022/11/23 07:20:55;;;;;;;19.55;8.52;;;2.50;83.50;;;;;;5031487;28;20060;-73
2022/11/23 07:23:21;;;;;;;15.15;6.45;;;2.50;83.40;;;;;;5031934;28;20025;-74
2022/11/23 07:25:47;;;;;;;14.35;6.47;;;2.60;83.40;;;;;;5032124;28;20033;-73
2022/11/23 07:28:13;;;;;;;16.75;6.25;;;2.60;83.20;;;;;;5031966;28;20028;-73
2022/11/23 07:30:40;;;;;;;16.25;6.32;;;2.60;83.30;;;;;;5031658;28;20124;-74
2022/11/23 07:33:08;;;;;;;11.30;5.43;;;2.70;83.00;;;;;;5031681;28;20021;-74
2022/11/23 07:35:35;;;;;;;12.35;5.78;;;2.70;83.30;;;;;;5031868;28;20075;-74
2022/11/23 07:38:01;;;;;;;12.68;5.53;;;2.70;83.20;;;;;;5031675;28;20091;-73
2022/11/23 07:40:27;;;;;;;10.50;4.85;;;2.90;83.20;;;;;;5031844;28;20397;-76
2022/11/23 07:42:57;;;;;;;9.68;4.40;;;2.90;82.80;;;;;;5031245;28;20044;-73
2022/11/23 07:45:23;;;;;;;10.70;5.05;;;3.00;82.40;;;;;;5031442;28;20055;-74
2022/11/23 07:48:00;;;;;;;12.63;5.80;;;3.00;82.50;;;;;;5031624;28;20029;-74
2022/11/23 07:50:26;;;;;;;8.25;4.60;;;3.10;82.10;;;;;;5031558;28;20355;-73
2022/11/23 07:52:51;;;;;;;9.13;4.05;;;3.20;81.60;;;;;;5031521;28;20382;-73
2022/11/23 07:55:17;;;;;;;8.93;4.68;;;3.30;81.30;;;;;;5031170;28;20033;-74
2022/11/23 07:57:43;;;;;;;6.50;4.15;;;3.40;80.90;;;;;;5031447;28;20413;-74
2022/11/23 08:00:09;;;;;;;8.13;2.78;;;3.50;80.10;;;;;;5031055;28;20021;-74
2022/11/23 08:02:34;;;;;;;5.18;2.80;;;3.60;79.60;;;;;;5030831;28;20439;-77
2022/11/23 08:05:00;;;;;;;5.90;2.28;;;3.70;79.20;;;;;;5031925;28;20053;-73
2022/11/23 08:07:25;;;;;;;4.18;2.60;;;3.80;79.40;;;;;;5031156;28;20062;-74
2022/11/23 08:09:51;;;;;;;6.72;2.63;;;3.90;78.40;;;;;;5031283;28;20470;-72
2022/11/23 08:12:17;;;;;;;7.47;2.30;;;4.00;78.20;;;;;;5030984;28;20112;-72
2022/11/23 08:14:42;;;;;;;4.40;2.38;;;4.20;77.30;;;;;;5030926;28;20028;-71
2022/11/23 08:17:08;;;;;;;9.88;2.70;;;4.20;76.90;;;;;;5030961;28;20459;-72
2022/11/23 08:19:33;;;;;;;5.53;2.35;;;4.30;76.60;;;;;;5031182;28;20080;-72
2022/11/23 08:21:59;;;;;;;3.03;2.25;;;4.50;76.50;;;;;;5031111;28;20017;-74
2022/11/23 08:24:24;;;;;;;4.95;2.03;;;4.60;75.10;;;;;;5032324;28;20029;-74
2022/11/23 08:26:50;;;;;;;6.53;2.28;;;4.60;74.90;;;;;;5031114;28;20098;-73
2022/11/23 08:29:15;;;;;;;2.83;1.80;;;4.70;74.80;;;;;;5031267;28;20037;-73
2022/11/23 08:31:41;;;;;;;3.42;2.15;;;4.80;74.50;;;;;;5031355;28;20025;-73
2022/11/23 08:34:07;;;;;;;3.00;2.03;;;4.90;74.40;;;;;;5030829;28;20040;-73
2022/11/23 08:36:33;;;;;;;6.90;2.75;;;5.00;73.60;;;;;;5014515;28;20041;-72
2022/11/23 08:38:58;;;;;;;4.15;2.20;;;5.10;73.60;;;;;;5031099;28;20094;-73
2022/11/23 08:41:24;;;;;;;3.92;2.10;;;5.20;73.70;;;;;;5030977;28;20029;-75
2022/11/23 08:43:50;;;;;;;5.22;2.30;;;5.30;73.20;;;;;;5030861;28;20028;-73
2022/11/23 08:46:16;;;;;;;5.32;2.55;;;5.50;72.60;;;;;;5030617;28;20437;-73
2022/11/23 08:48:42;;;;;;;7.70;2.47;;;5.70;72.20;;;;;;5030716;28;20029;-75
2022/11/23 08:51:08;;;;;;;4.03;2.50;;;5.80;71.40;;;;;;5030913;28;20577;-72
2022/11/23 08:53:34;;;;;;;3.30;2.40;;;5.80;71.00;;;;;;5030940;28;20121;-72
2022/11/23 08:56:01;;;;;;;3.97;2.00;;;5.90;72.00;;;;;;5031249;28;20109;-73
2022/11/23 08:58:27;;;;;;;3.17;2.42;;;6.00;70.90;;;;;;5030788;28;20083;-73
2022/11/23 09:00:52;;;;;;;6.47;2.45;;;6.30;71.00;;;;;;5016612;28;20068;-73
2022/11/23 09:03:18;;;;;;;3.10;2.10;;;6.40;69.90;;;;;;5034216;28;20489;-74
2022/11/23 09:05:44;;;;;;;6.57;2.53;;;6.60;68.70;;;;;;5033947;28;20044;-73
2022/11/23 09:08:10;;;;;;;4.63;2.20;;;6.60;68.50;;;;;;5034374;28;20029;-75
2022/11/23 09:10:36;;;;;;;5.95;2.55;;;6.60;68.30;;;;;;5034051;28;20057;-73
2022/11/23 09:13:02;;;;;;;8.38;2.67;;;6.70;68.60;;;;;;5033996;28;20025;-73
2022/11/23 09:15:28;;;;;;;3.50;2.20;;;6.80;67.80;;;;;;5033975;28;20117;-73
2022/11/23 09:17:55;;;;;;;3.58;2.03;;;7.00;67.30;;;;;;5033919;28;20128;-73
2022/11/23 09:20:20;;;;;;;4.28;2.10;;;7.10;67.20;;;;;;5034150;28;20032;-73
2022/11/23 09:22:51;;;;;;;5.00;2.08;;;7.40;66.40;;;;;;5033994;28;20382;-73
2022/11/23 09:25:16;;;;;;;5.50;2.13;;;7.60;65.50;;;;;;5033821;28;20029;-73
2022/11/23 09:27:42;;;;;;;7.43;2.33;;;7.70;65.10;;;;;;5033575;28;20037;-73
2022/11/23 09:30:08;;;;;;;6.90;1.60;;;8.00;64.40;;;;;;5026187;28;20052;-74
2022/11/23 09:32:34;;;;;;;2.47;1.63;;;8.10;64.00;;;;;;5013324;28;20478;-76
2022/11/23 09:34:59;;;;;;;2.80;1.77;;;8.40;63.20;;;;;;5012714;28;20033;-73
2022/11/23 09:37:25;;;;;;;4.05;1.80;;;8.40;62.00;;;;;;5011851;28;20034;-73
2022/11/23 09:39:51;;;;;;;5.18;1.73;;;8.50;61.50;;;;;;5012049;28;20029;-74
2022/11/23 09:42:35;;;;;;;5.38;1.65;;;8.80;61.70;;;;;;5013330;28;20041;-73
2022/11/23 09:45:35;;;;;;;4.15;1.77;;;9.00;60.50;;;;;;5013767;28;20463;-73
2022/11/23 09:48:16;;;;;;;8.63;1.60;;;9.30;59.60;;;;;;5013771;28;20105;-73
2022/11/23 09:51:18;;;;;;;5.53;1.73;;;9.60;58.40;;;;;;5013636;28;20025;-73
2022/11/23 09:53:50;;;;;;;3.08;1.70;;;9.80;57.50;;;;;;5013411;28;20041;-73
2022/11/23 09:56:23;;;;;;;3.80;1.67;;;9.90;56.90;;;;;;5013302;28;20087;-72
2022/11/23 09:58:56;;;;;;;4.47;1.70;;;10.10;57.30;;;;;;5013270;28;20120;-72
2022/11/23 10:01:23;;;;;;;3.60;1.90;;;10.20;56.60;;;;;;5013322;28;20057;-73
2022/11/23 10:03:49;;;;;;;4.30;2.08;;;10.30;56.40;;;;;;5013601;28;20383;-72
2022/11/23 10:06:24;;;;;;;9.90;3.70;;;10.40;55.50;;;;;;5027699;28;20549;-72
2022/11/23 10:09:03;;;;;;;2.92;1.67;;;10.50;55.30;;;;;;5032712;28;20394;-72
2022/11/23 10:11:42;;;;;;;5.50;1.77;;;10.60;55.80;;;;;;5031282;28;20236;-72
2022/11/23 10:14:11;;;;;;;3.67;1.77;;;10.90;56.20;;;;;;5032131;28;20103;-74
2022/11/23 10:16:57;;;;;;;6.25;1.88;;;11.10;54.70;;;;;;5032675;28;20064;-72
2022/11/23 10:20:04;;;;;;;7.97;2.15;;;11.20;53.70;;;;;;5032675;28;20025;-72
2022/11/23 10:22:45;;;;;;;9.32;2.03;;;11.10;53.70;;;;;;4989616;28;20093;-73
2022/11/23 10:25:17;;;;;;;8.02;2.33;;;11.30;53.80;;;;;;5033025;28;20120;-76
2022/11/23 10:27:46;;;;;;;4.45;1.73;;;11.60;52.60;;;;;;5033701;28;20026;-80
2022/11/23 10:30:13;;;;;;;4.20;1.98;;;11.80;51.70;;;;;;5033170;28;20048;-73
2022/11/23 10:33:04;;;;;;;5.13;2.03;;;12.10;51.30;;;;;;5032903;28;20498;-81
2022/11/23 10:35:33;;;;;;;5.82;1.60;;;12.40;50.40;;;;;;5032949;28;20108;-73
2022/11/23 10:38:13;;;;;;;6.47;2.13;;;12.70;49.70;;;;;;5032892;28;20486;-81
2022/11/23 10:40:45;;;;;;;5.35;1.40;;;13.10;48.10;;;;;;5033006;28;20367;-73
2022/11/23 10:43:17;;;;;;;5.15;1.70;;;13.30;47.30;;;;;;5032346;28;20461;-84
2022/11/23 10:45:43;;;;;;;3.65;1.75;;;13.50;45.70;;;;;;5032515;28;20064;-84
2022/11/23 10:48:08;;;;;;;4.15;1.83;;;13.80;46.30;;;;;;5039580;28;20029;-80
2022/11/23 10:50:39;;;;;;;5.93;1.40;;;14.00;44.80;;;;;;5038405;28;20026;-82
2022/11/23 10:53:04;;;;;;;1.65;1.20;;;14.00;44.10;;;;;;5032841;28;20077;-76
2022/11/23 10:55:33;;;;;;;5.50;2.75;;;14.20;44.30;;;;;;5032770;28;20466;-77
2022/11/23 10:57:59;;;;;;;5.43;1.63;;;14.40;44.30;;;;;;5032591;28;20088;-80
2022/11/23 11:00:27;;;;;;;6.50;1.75;;;14.30;42.10;;;;;;5033085;28;20026;-75
2022/11/23 11:02:54;;;;;;;6.45;1.75;;;13.90;43.30;;;;;;5031899;28;20124;-80
2022/11/23 11:05:36;;;;;;;6.30;1.77;;;14.00;44.90;;;;;;5031904;28;20022;-82
2022/11/23 11:08:15;;;;;;;5.53;1.70;;;14.30;44.20;;;;;;5031878;28;20021;-77
2022/11/23 11:10:51;;;;;;;4.32;1.38;;;14.60;43.10;;;;;;5032204;28;20025;-79
2022/11/23 11:13:22;;;;;;;;;;;14.70;42.90;;;;;;5032205;28;20075;-83
2022/11/23 11:16:17;;;;;;;4.03;1.70;;;14.90;41.30;;;;;;5032983;28;19992;-76
2022/11/23 11:18:42;;;;;;;5.05;1.38;;;15.20;41.90;;;;;;5030821;28;20052;-89
2022/11/23 11:21:28;;;;;;;5.95;1.65;;;15.70;40.10;;;;;;5032277;28;20025;-81
2022/11/23 11:23:56;;;;;;;;;;;15.90;39.00;;;;;;5031376;28;20463;-73
2022/11/23 11:26:25;;;;;;;6.30;1.67;;;16.30;39.50;;;;;;5031432;28;19920;-75
2022/11/23 11:28:53;;;;;;;6.15;1.73;;;16.80;37.60;;;;;;5031713;28;20022;-73
2022/11/23 11:31:37;;;;;;;6.57;1.80;;;17.30;36.80;;;;;;5031847;28;20022;-73
2022/11/23 11:34:16;;;;;;;2.95;1.27;;;17.80;36.40;;;;;;5031603;28;20052;-73
2022/11/23 11:37:06;;;;;;;3.15;1.45;;;18.30;34.20;;;;;;5047870;28;20026;-72
2022/11/23 11:39:51;;;;;;;4.47;1.30;;;18.80;33.00;;;;;;5031394;28;20470;-75
2022/11/23 11:42:31;;;;;;;3.90;1.75;;;19.20;31.00;;;;;;5031778;28;20125;-75
2022/11/23 11:44:57;;;;;;;4.20;1.40;;;19.30;30.40;;;;;;5031557;28;20387;-73
2022/11/23 11:47:30;;;;;;;4.25;1.30;;;19.50;29.50;;;;;;5031243;28;20147;-75
2022/11/23 11:50:01;;;;;;;3.75;1.15;;;18.90;29.50;;;;;;5031156;28;20048;-73
2022/11/23 11:52:35;;;;;;;4.45;1.13;;;19.20;30.00;;;;;;5031021;28;20034;-73
2022/11/23 11:55:06;;;;;;;6.75;1.58;;;20.00;29.40;;;;;;5031041;28;20030;-72
2022/11/23 11:58:01;;;;;;;4.05;1.17;;;21.20;27.70;;;;;;5034257;28;20039;-73
2022/11/23 12:00:29;;;;;;;3.00;1.10;;;22.40;25.30;;;;;;5030839;28;20087;-74
2022/11/23 12:03:24;;;;;;;7.15;1.17;;;22.60;21.90;;;;;;5030984;28;20025;-72
2022/11/23 12:05:52;;;;;;;5.63;0.63;;;22.80;22.40;;;;;;5001280;28;20355;-74
2022/11/23 12:08:57;;;;;;;3.22;1.25;;;23.30;20.80;;;;;;5031367;28;20018;-74
2022/11/23 12:11:22;;;;;;;2.45;0.88;;;23.70;20.00;;;;;;5030043;28;20030;-72
2022/11/23 12:13:48;;;;;;;2.83;0.85;;;24.70;19.20;;;;;;5030676;28;20386;-71
2022/11/23 12:16:33;;;;;;;3.47;0.80;;;25.10;18.30;;;;;;5031051;28;20537;-72
2022/11/23 12:19:38;;;;;;;3.17;1.30;;;26.00;17.50;;;;;;5030877;28;20040;-72
2022/11/23 12:22:27;;;;;;;1.70;0.75;;;27.20;16.30;;;;;;5001079;28;20034;-72
2022/11/23 12:25:23;;;;;;;3.70;1.17;;;28.10;15.70;;;;;;5031064;28;20133;-72
2022/11/23 12:28:16;;;;;;;;;;;29.00;14.20;;;;;;5030127;28;20052;-73
2022/11/23 12:30:57;;;;;;;19.10;15.30;;;29.90;12.40;;;;;;5031020;28;19905;-73
2022/11/23 12:33:36;;;;;;;3.78;1.20;;;31.20;11.90;;;;;;5030793;28;20022;-72
2022/11/23 12:36:11;;;;;;;3.22;1.10;;;32.50;10.80;;;;;;5033962;28;20032;-73
2022/11/23 12:39:07;;;;;;;2.85;0.90;;;33.10;10.10;;;;;;5034604;28;20072;-73
2022/11/23 12:41:54;;;;;;;2.35;1.17;;;33.60;8.70;;;;;;5035971;28;20030;-73
2022/11/23 12:44:58;;;;;;;2.13;1.20;;;33.40;8.60;;;;;;5034352;28;20057;-83
2022/11/23 12:47:41;;;;;;;1.88;0.60;;;33.30;8.20;;;;;;5036833;28;20037;-82
2022/11/23 12:50:10;;;;;;;3.65;1.30;;;32.00;9.30;;;;;;5034966;28;20028;-78
2022/11/23 12:52:56;;;;;;;2.60;1.17;;;32.40;9.10;;;;;;5035360;28;20029;-76
2022/11/23 12:55:22;;;;;;;2.33;1.20;;;33.00;9.10;;;;;;5035272;28;20032;-85
2022/11/23 12:58:04;;;;;;;2.83;1.10;;;32.70;7.60;;;;;;5035035;28;20037;-82
2022/11/23 13:00:38;;;;;;;2.40;0.80;;;32.90;8.00;;;;;;5037379;28;20068;-81
2022/11/23 13:03:22;;;;;;;3.17;0.90;;;33.40;7.60;;;;;;5035459;28;20044;-78